Red Elm, South Dakota
Current Conditions -  °F | °C
As of 10:55 PM on Thursday 18 Dec 2014 (Local Time) from KPHP Reporting Station
Clear Clear  
Wind Chill: -14°   Ceiling: Unl
Heat Index: -9°   Visibility: 10mi
Dew Point: -11°   Wind: 6mph
Humidity: 88%   Direction: 280°W
Pressure: 30.05"   Gusts: NA
Location:  45.0029°N, 101.639°W
Report Text: KPHP 190555Z AUTO 28005KT 10SM CLR M09/M11 A3005 RMK AO2 SLP205 T10941111 11033 21100 51001
Loading
Personal Weather Stations






























Interactive Weather Map New forecast layout! Learn more

10-Day Weather Forecast

Advertisements
Track Severe Weather on mobile